Whitneyville, Pennsylvania
Current Conditions -  °F | °C
As of 8:55 PM on Monday 20 Oct 2014 (Local Time) from KN38 Reporting Station
Overcast Overcast  
Wind Chill: 46°   Ceiling: 7000
Heat Index: 48°   Visibility: 10mi
Dew Point: 37°   Wind: 5mph
Humidity: 66%   Direction: 190°S
Pressure: 29.9"   Gusts: NA
Location:  41.8345°N, 77.0538°W
Report Text: KN38 210055Z AUTO 19004KT 10SM FEW041 FEW050 OVC070 09/03 A2990 RMK AO2
Loading
Personal Weather Stations






























Interactive Weather Map
Tropical Storm Tracking
New forecast layout! Learn more

10-Day Weather Forecast

Advertisements
Track Severe Weather on mobile